Vira, Pennsylvania
Current Conditions -  °F | °C
As of 7:53 PM on Monday 26 Jan 2015 (Local Time) from KUNV Reporting Station
Light Snow Light Snow  
Wind Chill: 14°   Ceiling: 900
Heat Index: 21°   Visibility: 1.2mi
Dew Point: 19°   Wind: 6mph
Humidity: 93%   Direction: 40°NE
Pressure: 29.79"   Gusts: NA
Location:  40.6073°N, 77.5812°W
Report Text: KUNV 270053Z 04005KT 1 1/4SM -SN BR OVC009 M06/M07 A2979
Loading
Personal Weather Stations






























Interactive Weather Map New forecast layout! Learn more

10-Day Weather Forecast

Advertisements
Track Severe Weather on mobile